Terminal Aerodrome Forecast
Issued by NWS Twin Cities, MN

Home | Current Version | Previous Version | Graphics & Text | Print | Product List | Glossary On
Versions: 1 2 3 4 5 6 7 8 9 10 11 12 13 14 15 16 17 18 19 20 21 22 23 24 25 26 27
000
FTUS43 KMPX 272100 AAA
TAFMSP
TAF AMD
KMSP 272100Z 2721/2824 17009KT P6SM SCT080 BKN200
     FM280000 16008KT P6SM SCT060 OVC120
     FM280600 14006KT 6SM -DZ BR SCT015 OVC050
     FM280900 VRB03KT 5SM -DZ BR OVC015
     FM281400 04004KT 3SM -DZ BR OVC008
     FM281800 36007KT P6SM OVC025=

USA.gov is the U.S. government's official web portal to all federal, state and local government web resources and services.